sensor_id;sensor_type;location;lat;lon;timestamp;P1;durP1;ratioP1;P2;durP2;ratioP2
42518;SDS011;28147;47.520;18.920;2023-02-28T00:02:51;7.35;;;2.70;;
42518;SDS011;28147;47.520;18.920;2023-02-28T00:10:13;7.63;;;3.33;;
42518;SDS011;28147;47.520;18.920;2023-02-28T00:21:43;7.15;;;3.63;;
42518;SDS011;28147;47.520;18.920;2023-02-28T03:49:54;7.10;;;3.17;;
42518;SDS011;28147;47.520;18.920;2023-02-28T03:54:55;5.65;;;2.60;;
42518;SDS011;28147;47.520;18.920;2023-02-28T04:06:04;6.80;;;2.92;;
42518;SDS011;28147;47.520;18.920;2023-02-28T04:08:33;6.07;;;3.30;;
42518;SDS011;28147;47.520;18.920;2023-02-28T04:44:25;5.85;;;2.88;;
42518;SDS011;28147;47.520;18.920;2023-02-28T05:50:47;6.38;;;3.05;;
42518;SDS011;28147;47.520;18.920;2023-02-28T05:56:18;6.32;;;3.03;;
42518;SDS011;28147;47.520;18.920;2023-02-28T06:13:13;7.80;;;2.97;;
42518;SDS011;28147;47.520;18.920;2023-02-28T06:15:39;6.15;;;2.50;;
42518;SDS011;28147;47.520;18.920;2023-02-28T06:21:21;8.38;;;3.22;;
42518;SDS011;28147;47.520;18.920;2023-02-28T06:24:09;9.50;;;3.58;;
42518;SDS011;28147;47.520;18.920;2023-02-28T06:32:35;8.38;;;2.70;;
42518;SDS011;28147;47.520;18.920;2023-02-28T06:35:01;8.38;;;3.20;;
42518;SDS011;28147;47.520;18.920;2023-02-28T06:50:11;7.43;;;3.22;;
42518;SDS011;28147;47.520;18.920;2023-02-28T06:52:38;7.05;;;3.20;;
42518;SDS011;28147;47.520;18.920;2023-02-28T06:55:53;6.25;;;2.97;;
42518;SDS011;28147;47.520;18.920;2023-02-28T07:00:33;7.90;;;3.13;;
42518;SDS011;28147;47.520;18.920;2023-02-28T07:03:14;8.00;;;2.95;;
42518;SDS011;28147;47.520;18.920;2023-02-28T07:05:40;5.82;;;3.13;;
42518;SDS011;28147;47.520;18.920;2023-02-28T07:08:06;5.63;;;2.90;;
42518;SDS011;28147;47.520;18.920;2023-02-28T07:10:43;4.75;;;2.28;;
42518;SDS011;28147;47.520;18.920;2023-02-28T07:14:29;9.68;;;3.05;;
42518;SDS011;28147;47.520;18.920;2023-02-28T07:18:10;6.47;;;2.47;;
42518;SDS011;28147;47.520;18.920;2023-02-28T07:20:36;9.73;;;3.25;;
42518;SDS011;28147;47.520;18.920;2023-02-28T07:23:01;5.43;;;2.55;;
42518;SDS011;28147;47.520;18.920;2023-02-28T07:25:27;6.53;;;2.85;;
42518;SDS011;28147;47.520;18.920;2023-02-28T07:28:17;5.18;;;2.50;;
42518;SDS011;28147;47.520;18.920;2023-02-28T07:30:43;6.05;;;2.60;;
42518;SDS011;28147;47.520;18.920;2023-02-28T07:34:57;7.35;;;2.75;;
42518;SDS011;28147;47.520;18.920;2023-02-28T07:38:18;4.78;;;2.42;;
42518;SDS011;28147;47.520;18.920;2023-02-28T07:43:42;5.80;;;2.40;;
42518;SDS011;28147;47.520;18.920;2023-02-28T07:48:00;5.50;;;2.83;;
42518;SDS011;28147;47.520;18.920;2023-02-28T07:53:12;6.10;;;2.47;;
42518;SDS011;28147;47.520;18.920;2023-02-28T07:55:37;7.95;;;2.47;;
42518;SDS011;28147;47.520;18.920;2023-02-28T07:58:02;7.22;;;2.83;;
42518;SDS011;28147;47.520;18.920;2023-02-28T08:03:03;6.00;;;2.60;;
42518;SDS011;28147;47.520;18.920;2023-02-28T08:05:28;7.13;;;2.60;;
42518;SDS011;28147;47.520;18.920;2023-02-28T08:07:55;5.60;;;2.50;;
42518;SDS011;28147;47.520;18.920;2023-02-28T08:10:20;5.15;;;2.58;;
42518;SDS011;28147;47.520;18.920;2023-02-28T08:13:05;6.72;;;2.40;;
42518;SDS011;28147;47.520;18.920;2023-02-28T08:17:40;4.05;;;2.20;;
42518;SDS011;28147;47.520;18.920;2023-02-28T08:20:05;5.45;;;2.83;;
42518;SDS011;28147;47.520;18.920;2023-02-28T08:22:32;7.28;;;2.75;;
42518;SDS011;28147;47.520;18.920;2023-02-28T08:24:57;7.22;;;2.50;;
42518;SDS011;28147;47.520;18.920;2023-02-28T08:27:22;5.35;;;2.70;;
42518;SDS011;28147;47.520;18.920;2023-02-28T08:29:48;6.55;;;2.60;;
42518;SDS011;28147;47.520;18.920;2023-02-28T08:32:13;6.60;;;2.55;;
42518;SDS011;28147;47.520;18.920;2023-02-28T08:34:39;3.80;;;2.40;;
42518;SDS011;28147;47.520;18.920;2023-02-28T08:37:05;6.50;;;2.97;;
42518;SDS011;28147;47.520;18.920;2023-02-28T08:39:30;4.82;;;2.00;;
42518;SDS011;28147;47.520;18.920;2023-02-28T08:41:59;10.38;;;3.08;;
42518;SDS011;28147;47.520;18.920;2023-02-28T08:44:24;4.75;;;2.42;;
42518;SDS011;28147;47.520;18.920;2023-02-28T08:46:50;5.95;;;2.80;;
42518;SDS011;28147;47.520;18.920;2023-02-28T08:49:15;5.72;;;2.60;;
42518;SDS011;28147;47.520;18.920;2023-02-28T08:51:41;5.97;;;2.65;;
42518;SDS011;28147;47.520;18.920;2023-02-28T08:54:07;6.30;;;3.13;;
42518;SDS011;28147;47.520;18.920;2023-02-28T08:56:44;4.43;;;2.50;;
42518;SDS011;28147;47.520;18.920;2023-02-28T08:59:11;4.47;;;2.40;;
42518;SDS011;28147;47.520;18.920;2023-02-28T09:01:36;4.72;;;2.78;;
42518;SDS011;28147;47.520;18.920;2023-02-28T09:04:02;7.55;;;3.40;;
42518;SDS011;28147;47.520;18.920;2023-02-28T09:06:27;6.03;;;2.70;;
42518;SDS011;28147;47.520;18.920;2023-02-28T09:08:53;7.38;;;2.40;;
42518;SDS011;28147;47.520;18.920;2023-02-28T09:13:48;5.13;;;2.53;;
42518;SDS011;28147;47.520;18.920;2023-02-28T09:16:14;5.03;;;2.67;;
42518;SDS011;28147;47.520;18.920;2023-02-28T09:18:41;5.68;;;2.72;;
42518;SDS011;28147;47.520;18.920;2023-02-28T09:21:07;5.45;;;2.95;;
42518;SDS011;28147;47.520;18.920;2023-02-28T09:23:35;5.72;;;2.63;;
42518;SDS011;28147;47.520;18.920;2023-02-28T09:26:03;5.25;;;2.40;;
42518;SDS011;28147;47.520;18.920;2023-02-28T09:28:28;4.15;;;2.30;;
42518;SDS011;28147;47.520;18.920;2023-02-28T09:30:54;4.63;;;2.42;;
42518;SDS011;28147;47.520;18.920;2023-02-28T09:33:21;4.65;;;2.20;;
42518;SDS011;28147;47.520;18.920;2023-02-28T09:35:50;10.13;;;2.50;;
42518;SDS011;28147;47.520;18.920;2023-02-28T09:38:16;4.47;;;2.05;;
42518;SDS011;28147;47.520;18.920;2023-02-28T09:40:47;6.68;;;2.72;;
42518;SDS011;28147;47.520;18.920;2023-02-28T09:43:16;6.15;;;2.40;;
42518;SDS011;28147;47.520;18.920;2023-02-28T09:45:55;6.78;;;2.75;;
42518;SDS011;28147;47.520;18.920;2023-02-28T09:48:31;6.22;;;2.28;;
42518;SDS011;28147;47.520;18.920;2023-02-28T09:52:29;4.93;;;2.45;;
42518;SDS011;28147;47.520;18.920;2023-02-28T09:55:04;7.10;;;2.08;;
42518;SDS011;28147;47.520;18.920;2023-02-28T09:57:47;4.57;;;2.25;;
42518;SDS011;28147;47.520;18.920;2023-02-28T10:05:38;6.65;;;2.33;;
42518;SDS011;28147;47.520;18.920;2023-02-28T10:08:17;3.83;;;1.92;;
42518;SDS011;28147;47.520;18.920;2023-02-28T10:10:51;4.97;;;2.17;;
42518;SDS011;28147;47.520;18.920;2023-02-28T10:16:01;6.10;;;2.30;;
42518;SDS011;28147;47.520;18.920;2023-02-28T10:18:40;5.03;;;2.15;;
42518;SDS011;28147;47.520;18.920;2023-02-28T10:21:16;5.30;;;2.10;;
42518;SDS011;28147;47.520;18.920;2023-02-28T10:23:51;3.70;;;1.80;;
42518;SDS011;28147;47.520;18.920;2023-02-28T10:26:21;4.03;;;1.83;;
42518;SDS011;28147;47.520;18.920;2023-02-28T10:28:48;3.92;;;2.00;;
42518;SDS011;28147;47.520;18.920;2023-02-28T10:31:18;3.97;;;1.65;;
42518;SDS011;28147;47.520;18.920;2023-02-28T10:34:10;3.55;;;1.73;;
42518;SDS011;28147;47.520;18.920;2023-02-28T10:36:37;3.97;;;1.98;;
42518;SDS011;28147;47.520;18.920;2023-02-28T10:39:33;3.80;;;1.85;;
42518;SDS011;28147;47.520;18.920;2023-02-28T10:43:32;3.25;;;1.83;;
42518;SDS011;28147;47.520;18.920;2023-02-28T10:46:00;4.60;;;2.30;;
42518;SDS011;28147;47.520;18.920;2023-02-28T10:49:00;2.97;;;1.65;;
42518;SDS011;28147;47.520;18.920;2023-02-28T10:54:04;4.05;;;2.10;;
42518;SDS011;28147;47.520;18.920;2023-02-28T10:56:30;5.18;;;2.20;;
42518;SDS011;28147;47.520;18.920;2023-02-28T10:59:01;4.38;;;2.25;;
42518;SDS011;28147;47.520;18.920;2023-02-28T11:01:38;4.32;;;2.00;;
42518;SDS011;28147;47.520;18.920;2023-02-28T11:07:01;4.78;;;2.72;;
42518;SDS011;28147;47.520;18.920;2023-02-28T11:09:30;4.68;;;2.38;;
42518;SDS011;28147;47.520;18.920;2023-02-28T11:12:01;3.42;;;1.88;;
42518;SDS011;28147;47.520;18.920;2023-02-28T11:14:43;4.70;;;2.17;;
42518;SDS011;28147;47.520;18.920;2023-02-28T11:17:27;3.83;;;2.47;;
42518;SDS011;28147;47.520;18.920;2023-02-28T11:19:58;9.02;;;4.63;;
42518;SDS011;28147;47.520;18.920;2023-02-28T11:22:29;5.35;;;3.05;;
42518;SDS011;28147;47.520;18.920;2023-02-28T11:24:57;4.97;;;2.22;;
42518;SDS011;28147;47.520;18.920;2023-02-28T11:27:26;4.13;;;2.10;;
42518;SDS011;28147;47.520;18.920;2023-02-28T11:30:27;5.43;;;2.53;;
42518;SDS011;28147;47.520;18.920;2023-02-28T11:32:53;4.82;;;2.88;;
42518;SDS011;28147;47.520;18.920;2023-02-28T11:35:26;3.63;;;2.10;;
42518;SDS011;28147;47.520;18.920;2023-02-28T11:37:55;5.75;;;2.50;;
42518;SDS011;28147;47.520;18.920;2023-02-28T11:40:24;7.82;;;2.67;;
42518;SDS011;28147;47.520;18.920;2023-02-28T11:43:20;5.63;;;2.70;;
42518;SDS011;28147;47.520;18.920;2023-02-28T11:48:56;4.70;;;2.50;;
42518;SDS011;28147;47.520;18.920;2023-02-28T11:51:24;6.43;;;3.90;;
42518;SDS011;28147;47.520;18.920;2023-02-28T11:56:50;5.07;;;2.42;;
42518;SDS011;28147;47.520;18.920;2023-02-28T12:07:18;6.00;;;2.13;;
42518;SDS011;28147;47.520;18.920;2023-02-28T12:09:56;5.30;;;2.28;;
42518;SDS011;28147;47.520;18.920;2023-02-28T12:12:53;4.45;;;2.05;;
42518;SDS011;28147;47.520;18.920;2023-02-28T12:20:53;4.93;;;2.95;;
42518;SDS011;28147;47.520;18.920;2023-02-28T12:31:36;6.68;;;2.67;;
42518;SDS011;28147;47.520;18.920;2023-02-28T12:34:07;4.25;;;1.90;;
42518;SDS011;28147;47.520;18.920;2023-02-28T12:36:36;4.20;;;2.65;;
42518;SDS011;28147;47.520;18.920;2023-02-28T12:39:04;4.45;;;2.50;;
42518;SDS011;28147;47.520;18.920;2023-02-28T12:41:42;4.60;;;2.55;;
42518;SDS011;28147;47.520;18.920;2023-02-28T12:44:17;5.38;;;2.47;;
42518;SDS011;28147;47.520;18.920;2023-02-28T12:46:49;3.67;;;2.17;;
42518;SDS011;28147;47.520;18.920;2023-02-28T12:52:08;4.43;;;2.25;;
42518;SDS011;28147;47.520;18.920;2023-02-28T12:54:47;6.10;;;2.25;;
42518;SDS011;28147;47.520;18.920;2023-02-28T12:57:27;5.35;;;2.25;;
42518;SDS011;28147;47.520;18.920;2023-02-28T13:00:03;4.22;;;2.22;;
42518;SDS011;28147;47.520;18.920;2023-02-28T13:09:23;5.03;;;2.85;;
42518;SDS011;28147;47.520;18.920;2023-02-28T13:11:41;5.97;;;3.00;;
42518;SDS011;28147;47.520;18.920;2023-02-28T13:14:26;4.63;;;2.20;;
42518;SDS011;28147;47.520;18.920;2023-02-28T13:27:59;4.45;;;2.60;;
42518;SDS011;28147;47.520;18.920;2023-02-28T13:33:28;4.65;;;2.22;;
42518;SDS011;28147;47.520;18.920;2023-02-28T13:38:40;10.00;;;4.28;;
42518;SDS011;28147;47.520;18.920;2023-02-28T13:44:03;4.20;;;2.20;;
42518;SDS011;28147;47.520;18.920;2023-02-28T13:49:25;5.63;;;2.65;;
42518;SDS011;28147;47.520;18.920;2023-02-28T13:51:55;6.97;;;2.45;;
42518;SDS011;28147;47.520;18.920;2023-02-28T14:05:14;5.53;;;2.80;;
42518;SDS011;28147;47.520;18.920;2023-02-28T14:07:46;4.07;;;2.67;;
42518;SDS011;28147;47.520;18.920;2023-02-28T14:17:58;7.13;;;3.20;;
42518;SDS011;28147;47.520;18.920;2023-02-28T14:20:27;9.52;;;2.60;;
42518;SDS011;28147;47.520;18.920;2023-02-28T14:23:04;6.72;;;3.28;;
42518;SDS011;28147;47.520;18.920;2023-02-28T14:25:54;7.53;;;2.83;;
42518;SDS011;28147;47.520;18.920;2023-02-28T14:31:11;5.35;;;2.70;;
42518;SDS011;28147;47.520;18.920;2023-02-28T14:36:23;5.18;;;2.65;;
42518;SDS011;28147;47.520;18.920;2023-02-28T14:38:56;7.00;;;2.83;;
42518;SDS011;28147;47.520;18.920;2023-02-28T14:43:59;7.18;;;3.72;;
42518;SDS011;28147;47.520;18.920;2023-02-28T14:46:33;7.40;;;3.22;;
42518;SDS011;28147;47.520;18.920;2023-02-28T14:49:06;6.70;;;3.30;;
42518;SDS011;28147;47.520;18.920;2023-02-28T14:51:37;5.95;;;3.15;;
42518;SDS011;28147;47.520;18.920;2023-02-28T14:54:02;10.05;;;3.55;;
42518;SDS011;28147;47.520;18.920;2023-02-28T14:56:36;6.10;;;3.08;;
42518;SDS011;28147;47.520;18.920;2023-02-28T14:59:03;6.93;;;3.30;;
42518;SDS011;28147;47.520;18.920;2023-02-28T15:08:21;8.80;;;3.45;;
42518;SDS011;28147;47.520;18.920;2023-02-28T15:13:40;6.53;;;3.53;;
42518;SDS011;28147;47.520;18.920;2023-02-28T15:21:20;5.03;;;2.88;;
42518;SDS011;28147;47.520;18.920;2023-02-28T15:23:51;6.55;;;3.10;;
42518;SDS011;28147;47.520;18.920;2023-02-28T15:26:19;5.90;;;3.10;;
42518;SDS011;28147;47.520;18.920;2023-02-28T15:30:20;9.10;;;3.47;;
42518;SDS011;28147;47.520;18.920;2023-02-28T15:33:38;6.38;;;3.28;;
42518;SDS011;28147;47.520;18.920;2023-02-28T15:38:52;6.57;;;3.60;;
42518;SDS011;28147;47.520;18.920;2023-02-28T15:46:27;6.57;;;3.13;;
42518;SDS011;28147;47.520;18.920;2023-02-28T15:58:12;6.57;;;3.60;;
42518;SDS011;28147;47.520;18.920;2023-02-28T16:00:38;6.72;;;3.28;;
42518;SDS011;28147;47.520;18.920;2023-02-28T16:09:52;9.05;;;4.28;;
42518;SDS011;28147;47.520;18.920;2023-02-28T16:12:18;7.78;;;3.88;;
42518;SDS011;28147;47.520;18.920;2023-02-28T16:16:30;6.60;;;3.22;;
42518;SDS011;28147;47.520;18.920;2023-02-28T16:24:29;6.95;;;3.50;;
42518;SDS011;28147;47.520;18.920;2023-02-28T16:34:20;8.38;;;3.80;;
42518;SDS011;28147;47.520;18.920;2023-02-28T16:42:20;9.73;;;5.05;;
42518;SDS011;28147;47.520;18.920;2023-02-28T16:44:51;7.32;;;4.20;;
42518;SDS011;28147;47.520;18.920;2023-02-28T16:56:24;8.93;;;5.13;;
42518;SDS011;28147;47.520;18.920;2023-02-28T17:05:05;11.23;;;5.78;;
42518;SDS011;28147;47.520;18.920;2023-02-28T18:56:23;10.68;;;5.18;;
42518;SDS011;28147;47.520;18.920;2023-02-28T19:37:37;14.57;;;8.18;;
42518;SDS011;28147;47.520;18.920;2023-02-28T20:33:16;8.63;;;4.88;;
42518;SDS011;28147;47.520;18.920;2023-02-28T20:35:43;10.75;;;4.82;;
42518;SDS011;28147;47.520;18.920;2023-02-28T20:38:38;10.20;;;5.72;;
42518;SDS011;28147;47.520;18.920;2023-02-28T20:43:13;11.20;;;5.18;;
42518;SDS011;28147;47.520;18.920;2023-02-28T20:45:38;10.18;;;5.20;;
42518;SDS011;28147;47.520;18.920;2023-02-28T20:51:37;9.40;;;4.75;;
42518;SDS011;28147;47.520;18.920;2023-02-28T20:55:29;10.40;;;4.53;;
42518;SDS011;28147;47.520;18.920;2023-02-28T20:59:13;9.32;;;5.25;;
42518;SDS011;28147;47.520;18.920;2023-02-28T21:01:39;9.40;;;5.50;;
42518;SDS011;28147;47.520;18.920;2023-02-28T21:04:06;9.13;;;5.15;;
42518;SDS011;28147;47.520;18.920;2023-02-28T21:08:13;8.90;;;5.10;;
42518;SDS011;28147;47.520;18.920;2023-02-28T21:10:38;11.18;;;5.20;;
42518;SDS011;28147;47.520;18.920;2023-02-28T21:13:04;11.25;;;6.00;;
42518;SDS011;28147;47.520;18.920;2023-02-28T21:15:29;9.93;;;5.20;;
42518;SDS011;28147;47.520;18.920;2023-02-28T21:17:55;9.55;;;5.07;;
42518;SDS011;28147;47.520;18.920;2023-02-28T21:20:20;9.98;;;5.40;;
42518;SDS011;28147;47.520;18.920;2023-02-28T21:22:57;8.50;;;5.05;;
42518;SDS011;28147;47.520;18.920;2023-02-28T21:25:49;11.10;;;5.90;;
42518;SDS011;28147;47.520;18.920;2023-02-28T21:28:15;11.05;;;5.45;;
42518;SDS011;28147;47.520;18.920;2023-02-28T21:30:40;10.15;;;5.97;;
42518;SDS011;28147;47.520;18.920;2023-02-28T21:33:05;11.07;;;5.65;;
42518;SDS011;28147;47.520;18.920;2023-02-28T21:35:31;10.68;;;5.85;;
42518;SDS011;28147;47.520;18.920;2023-02-28T21:37:56;9.02;;;5.13;;
42518;SDS011;28147;47.520;18.920;2023-02-28T21:41:22;11.10;;;5.93;;
42518;SDS011;28147;47.520;18.920;2023-02-28T21:46:20;9.35;;;5.88;;
42518;SDS011;28147;47.520;18.920;2023-02-28T21:50:41;11.57;;;5.82;;
42518;SDS011;28147;47.520;18.920;2023-02-28T21:53:07;11.07;;;5.70;;
42518;SDS011;28147;47.520;18.920;2023-02-28T21:55:33;12.38;;;6.25;;
42518;SDS011;28147;47.520;18.920;2023-02-28T21:57:59;12.02;;;6.70;;
42518;SDS011;28147;47.520;18.920;2023-02-28T22:00:24;11.70;;;5.97;;
42518;SDS011;28147;47.520;18.920;2023-02-28T22:02:50;11.35;;;5.88;;
42518;SDS011;28147;47.520;18.920;2023-02-28T22:05:15;10.88;;;7.45;;
42518;SDS011;28147;47.520;18.920;2023-02-28T22:07:42;10.85;;;6.13;;
42518;SDS011;28147;47.520;18.920;2023-02-28T22:10:09;15.02;;;6.68;;
42518;SDS011;28147;47.520;18.920;2023-02-28T22:12:34;13.95;;;6.03;;
42518;SDS011;28147;47.520;18.920;2023-02-28T22:15:00;11.20;;;6.25;;
42518;SDS011;28147;47.520;18.920;2023-02-28T22:17:25;9.60;;;5.88;;
42518;SDS011;28147;47.520;18.920;2023-02-28T22:19:50;13.85;;;7.22;;
42518;SDS011;28147;47.520;18.920;2023-02-28T22:23:46;14.57;;;7.20;;
42518;SDS011;28147;47.520;18.920;2023-02-28T22:26:12;12.95;;;6.78;;
42518;SDS011;28147;47.520;18.920;2023-02-28T22:28:39;11.63;;;6.25;;
42518;SDS011;28147;47.520;18.920;2023-02-28T22:31:24;9.70;;;5.93;;
42518;SDS011;28147;47.520;18.920;2023-02-28T22:33:52;12.82;;;6.85;;
42518;SDS011;28147;47.520;18.920;2023-02-28T22:36:20;13.50;;;6.47;;
42518;SDS011;28147;47.520;18.920;2023-02-28T22:38:47;13.02;;;6.43;;
42518;SDS011;28147;47.520;18.920;2023-02-28T22:41:15;11.68;;;6.50;;
42518;SDS011;28147;47.520;18.920;2023-02-28T22:46:27;11.35;;;6.25;;
42518;SDS011;28147;47.520;18.920;2023-02-28T22:49:23;14.32;;;6.20;;
42518;SDS011;28147;47.520;18.920;2023-02-28T22:51:49;11.07;;;5.50;;
42518;SDS011;28147;47.520;18.920;2023-02-28T22:54:24;11.55;;;5.80;;
42518;SDS011;28147;47.520;18.920;2023-02-28T22:56:49;11.63;;;5.95;;
42518;SDS011;28147;47.520;18.920;2023-02-28T22:59:15;11.52;;;6.18;;
42518;SDS011;28147;47.520;18.920;2023-02-28T23:01:40;15.20;;;6.97;;
42518;SDS011;28147;47.520;18.920;2023-02-28T23:04:08;20.35;;;7.68;;
42518;SDS011;28147;47.520;18.920;2023-02-28T23:06:57;13.80;;;6.75;;
42518;SDS011;28147;47.520;18.920;2023-02-28T23:09:23;14.82;;;7.32;;
42518;SDS011;28147;47.520;18.920;2023-02-28T23:11:49;11.90;;;6.80;;
42518;SDS011;28147;47.520;18.920;2023-02-28T23:14:15;13.23;;;6.93;;
42518;SDS011;28147;47.520;18.920;2023-02-28T23:16:43;12.98;;;6.25;;
42518;SDS011;28147;47.520;18.920;2023-02-28T23:19:12;14.25;;;7.35;;
42518;SDS011;28147;47.520;18.920;2023-02-28T23:21:38;13.90;;;7.07;;
42518;SDS011;28147;47.520;18.920;2023-02-28T23:24:04;12.55;;;7.05;;
42518;SDS011;28147;47.520;18.920;2023-02-28T23:26:34;14.85;;;7.13;;
42518;SDS011;28147;47.520;18.920;2023-02-28T23:29:37;15.82;;;7.18;;
42518;SDS011;28147;47.520;18.920;2023-02-28T23:32:59;16.17;;;7.13;;
42518;SDS011;28147;47.520;18.920;2023-02-28T23:35:24;14.60;;;7.70;;
42518;SDS011;28147;47.520;18.920;2023-02-28T23:38:50;15.65;;;8.02;;
42518;SDS011;28147;47.520;18.920;2023-02-28T23:41:17;13.63;;;6.88;;
42518;SDS011;28147;47.520;18.920;2023-02-28T23:43:44;16.35;;;7.75;;
42518;SDS011;28147;47.520;18.920;2023-02-28T23:49:54;14.73;;;7.10;;
42518;SDS011;28147;47.520;18.920;2023-02-28T23:52:50;12.55;;;7.07;;
42518;SDS011;28147;47.520;18.920;2023-02-28T23:55:16;12.60;;;7.25;;
